sensor_id;sensor_type;location;lat;lon;timestamp;P1;durP1;ratioP1;P2;durP2;ratioP2
23490;SDS011;14683;50.038;8.078;2022-09-21T06:00:30;18.43;;;4.57;;
23490;SDS011;14683;50.038;8.078;2022-09-21T06:03:27;12.25;;;3.88;;
23490;SDS011;14683;50.038;8.078;2022-09-21T06:05:57;7.25;;;3.53;;
23490;SDS011;14683;50.038;8.078;2022-09-21T06:08:24;30.10;;;4.47;;
23490;SDS011;14683;50.038;8.078;2022-09-21T06:10:50;14.73;;;4.05;;
23490;SDS011;14683;50.038;8.078;2022-09-21T06:13:16;13.07;;;4.32;;
23490;SDS011;14683;50.038;8.078;2022-09-21T06:15:42;12.50;;;4.25;;
23490;SDS011;14683;50.038;8.078;2022-09-21T06:18:09;17.58;;;5.22;;
23490;SDS011;14683;50.038;8.078;2022-09-21T06:20:35;17.40;;;4.10;;
23490;SDS011;14683;50.038;8.078;2022-09-21T06:25:31;9.98;;;4.03;;
23490;SDS011;14683;50.038;8.078;2022-09-21T06:30:41;4.55;;;3.28;;
23490;SDS011;14683;50.038;8.078;2022-09-21T06:33:08;25.67;;;4.32;;
23490;SDS011;14683;50.038;8.078;2022-09-21T06:38:04;49.85;;;8.60;;
23490;SDS011;14683;50.038;8.078;2022-09-21T06:40:32;67.63;;;10.38;;
23490;SDS011;14683;50.038;8.078;2022-09-21T06:43:00;21.23;;;6.93;;
23490;SDS011;14683;50.038;8.078;2022-09-21T06:45:27;30.23;;;8.13;;
23490;SDS011;14683;50.038;8.078;2022-09-21T06:47:54;43.90;;;7.78;;
23490;SDS011;14683;50.038;8.078;2022-09-21T06:52:46;18.05;;;3.65;;
23490;SDS011;14683;50.038;8.078;2022-09-21T06:55:12;74.32;;;5.68;;
23490;SDS011;14683;50.038;8.078;2022-09-21T07:00:05;21.35;;;5.47;;
23490;SDS011;14683;50.038;8.078;2022-09-21T07:02:33;51.28;;;6.90;;
23490;SDS011;14683;50.038;8.078;2022-09-21T07:04:59;31.35;;;6.07;;
23490;SDS011;14683;50.038;8.078;2022-09-21T07:07:27;51.72;;;7.10;;
23490;SDS011;14683;50.038;8.078;2022-09-21T07:09:55;38.33;;;6.65;;
23490;SDS011;14683;50.038;8.078;2022-09-21T07:14:46;12.77;;;5.88;;
23490;SDS011;14683;50.038;8.078;2022-09-21T07:17:12;11.82;;;5.65;;
23490;SDS011;14683;50.038;8.078;2022-09-21T07:19:39;25.27;;;6.30;;
23490;SDS011;14683;50.038;8.078;2022-09-21T07:22:05;21.67;;;6.13;;
23490;SDS011;14683;50.038;8.078;2022-09-21T07:24:31;20.50;;;6.72;;
23490;SDS011;14683;50.038;8.078;2022-09-21T07:29:23;20.33;;;6.60;;
23490;SDS011;14683;50.038;8.078;2022-09-21T07:31:49;8.55;;;6.25;;
23490;SDS011;14683;50.038;8.078;2022-09-21T07:34:16;17.77;;;7.00;;
23490;SDS011;14683;50.038;8.078;2022-09-21T07:36:42;15.10;;;7.32;;
23490;SDS011;14683;50.038;8.078;2022-09-21T07:39:08;24.65;;;7.00;;
23490;SDS011;14683;50.038;8.078;2022-09-21T07:41:34;11.45;;;6.05;;
23490;SDS011;14683;50.038;8.078;2022-09-21T07:44:01;13.00;;;6.70;;
23490;SDS011;14683;50.038;8.078;2022-09-21T07:46:28;20.15;;;6.70;;
23490;SDS011;14683;50.038;8.078;2022-09-21T07:51:20;9.20;;;5.80;;
23490;SDS011;14683;50.038;8.078;2022-09-21T07:53:47;9.07;;;5.18;;
23490;SDS011;14683;50.038;8.078;2022-09-21T07:56:14;10.48;;;5.85;;
23490;SDS011;14683;50.038;8.078;2022-09-21T07:58:41;7.72;;;6.22;;
23490;SDS011;14683;50.038;8.078;2022-09-21T08:01:27;7.45;;;5.45;;
23490;SDS011;14683;50.038;8.078;2022-09-21T08:03:55;5.88;;;5.07;;
23490;SDS011;14683;50.038;8.078;2022-09-21T08:06:22;5.88;;;5.30;;
23490;SDS011;14683;50.038;8.078;2022-09-21T08:08:50;6.70;;;5.45;;
23490;SDS011;14683;50.038;8.078;2022-09-21T08:13:42;9.35;;;5.40;;
23490;SDS011;14683;50.038;8.078;2022-09-21T08:16:08;6.65;;;5.63;;
23490;SDS011;14683;50.038;8.078;2022-09-21T08:18:35;6.30;;;5.63;;
23490;SDS011;14683;50.038;8.078;2022-09-21T08:21:02;6.47;;;4.93;;
23490;SDS011;14683;50.038;8.078;2022-09-21T08:23:28;7.75;;;5.65;;
23490;SDS011;14683;50.038;8.078;2022-09-21T08:28:25;8.50;;;5.30;;
23490;SDS011;14683;50.038;8.078;2022-09-21T08:30:52;7.32;;;5.38;;
23490;SDS011;14683;50.038;8.078;2022-09-21T08:33:18;6.97;;;5.07;;
23490;SDS011;14683;50.038;8.078;2022-09-21T08:35:54;5.88;;;5.28;;
23490;SDS011;14683;50.038;8.078;2022-09-21T08:38:21;5.35;;;4.85;;
23490;SDS011;14683;50.038;8.078;2022-09-21T08:40:47;5.70;;;4.60;;
23490;SDS011;14683;50.038;8.078;2022-09-21T08:43:21;7.07;;;4.55;;
23490;SDS011;14683;50.038;8.078;2022-09-21T08:46:02;12.70;;;4.68;;
23490;SDS011;14683;50.038;8.078;2022-09-21T08:48:31;7.55;;;4.40;;
23490;SDS011;14683;50.038;8.078;2022-09-21T08:51:04;3.65;;;3.35;;
23490;SDS011;14683;50.038;8.078;2022-09-21T08:56:12;5.45;;;3.75;;
23490;SDS011;14683;50.038;8.078;2022-09-21T08:58:39;3.92;;;3.33;;
23490;SDS011;14683;50.038;8.078;2022-09-21T09:04:05;4.35;;;2.80;;
23490;SDS011;14683;50.038;8.078;2022-09-21T09:09:40;4.55;;;2.33;;
23490;SDS011;14683;50.038;8.078;2022-09-21T09:23:35;5.95;;;2.42;;
23490;SDS011;14683;50.038;8.078;2022-09-21T09:25:49;4.95;;;2.33;;
23490;SDS011;14683;50.038;8.078;2022-09-21T09:31:15;5.15;;;2.58;;
23490;SDS011;14683;50.038;8.078;2022-09-21T09:33:55;5.10;;;2.55;;
23490;SDS011;14683;50.038;8.078;2022-09-21T09:36:29;4.95;;;2.88;;
23490;SDS011;14683;50.038;8.078;2022-09-21T09:39:02;5.22;;;2.92;;
23490;SDS011;14683;50.038;8.078;2022-09-21T09:51:44;5.93;;;3.40;;
23490;SDS011;14683;50.038;8.078;2022-09-21T09:54:12;9.95;;;3.80;;
23490;SDS011;14683;50.038;8.078;2022-09-21T09:56:39;9.43;;;3.38;;
23490;SDS011;14683;50.038;8.078;2022-09-21T09:59:09;6.80;;;4.07;;
23490;SDS011;14683;50.038;8.078;2022-09-21T10:01:40;7.95;;;3.63;;
23490;SDS011;14683;50.038;8.078;2022-09-21T10:04:12;9.45;;;3.60;;
23490;SDS011;14683;50.038;8.078;2022-09-21T10:06:39;10.18;;;3.75;;
23490;SDS011;14683;50.038;8.078;2022-09-21T10:09:27;4.85;;;2.88;;
23490;SDS011;14683;50.038;8.078;2022-09-21T10:11:59;7.75;;;2.95;;
23490;SDS011;14683;50.038;8.078;2022-09-21T10:14:27;8.25;;;3.65;;
23490;SDS011;14683;50.038;8.078;2022-09-21T10:16:58;4.25;;;2.90;;
23490;SDS011;14683;50.038;8.078;2022-09-21T10:19:29;6.10;;;4.00;;
23490;SDS011;14683;50.038;8.078;2022-09-21T10:24:26;7.53;;;3.50;;
23490;SDS011;14683;50.038;8.078;2022-09-21T10:26:54;11.70;;;3.55;;
23490;SDS011;14683;50.038;8.078;2022-09-21T10:31:53;7.28;;;3.00;;
23490;SDS011;14683;50.038;8.078;2022-09-21T10:34:32;7.15;;;2.88;;
23490;SDS011;14683;50.038;8.078;2022-09-21T10:37:00;8.30;;;3.20;;
23490;SDS011;14683;50.038;8.078;2022-09-21T10:39:31;8.05;;;3.05;;
23490;SDS011;14683;50.038;8.078;2022-09-21T10:42:11;7.45;;;2.80;;
23490;SDS011;14683;50.038;8.078;2022-09-21T10:49:48;3.30;;;2.35;;
23490;SDS011;14683;50.038;8.078;2022-09-21T10:52:17;3.38;;;2.17;;
23490;SDS011;14683;50.038;8.078;2022-09-21T10:54:46;5.82;;;2.58;;
23490;SDS011;14683;50.038;8.078;2022-09-21T10:57:14;6.53;;;2.53;;
23490;SDS011;14683;50.038;8.078;2022-09-21T10:59:41;7.85;;;2.53;;
23490;SDS011;14683;50.038;8.078;2022-09-21T11:02:22;3.00;;;1.67;;
23490;SDS011;14683;50.038;8.078;2022-09-21T11:07:44;2.80;;;1.80;;
23490;SDS011;14683;50.038;8.078;2022-09-21T11:10:21;7.53;;;1.85;;
23490;SDS011;14683;50.038;8.078;2022-09-21T11:12:54;5.43;;;1.80;;
23490;SDS011;14683;50.038;8.078;2022-09-21T11:15:36;6.88;;;2.05;;
23490;SDS011;14683;50.038;8.078;2022-09-21T11:20:46;4.15;;;1.40;;
23490;SDS011;14683;50.038;8.078;2022-09-21T11:24:03;2.45;;;1.20;;
23490;SDS011;14683;50.038;8.078;2022-09-21T11:29:01;5.80;;;1.45;;
23490;SDS011;14683;50.038;8.078;2022-09-21T11:48:36;5.47;;;1.48;;
23490;SDS011;14683;50.038;8.078;2022-09-21T11:59:47;6.75;;;1.58;;
23490;SDS011;14683;50.038;8.078;2022-09-21T12:05:35;5.75;;;1.50;;
23490;SDS011;14683;50.038;8.078;2022-09-21T12:10:56;1.05;;;0.90;;
23490;SDS011;14683;50.038;8.078;2022-09-21T12:13:37;3.25;;;1.05;;
23490;SDS011;14683;50.038;8.078;2022-09-21T12:18:45;7.82;;;1.38;;
23490;SDS011;14683;50.038;8.078;2022-09-21T12:21:28;1.58;;;1.02;;
23490;SDS011;14683;50.038;8.078;2022-09-21T12:23:56;2.97;;;1.17;;
23490;SDS011;14683;50.038;8.078;2022-09-21T12:26:28;1.90;;;1.13;;
23490;SDS011;14683;50.038;8.078;2022-09-21T12:29:02;4.60;;;1.17;;
23490;SDS011;14683;50.038;8.078;2022-09-21T12:32:18;2.45;;;1.25;;
23490;SDS011;14683;50.038;8.078;2022-09-21T12:35:11;0.93;;;0.90;;
23490;SDS011;14683;50.038;8.078;2022-09-21T12:37:46;2.45;;;1.10;;
23490;SDS011;14683;50.038;8.078;2022-09-21T12:40:19;3.33;;;1.40;;
23490;SDS011;14683;50.038;8.078;2022-09-21T12:45:58;4.15;;;1.20;;
23490;SDS011;14683;50.038;8.078;2022-09-21T12:48:43;3.72;;;1.10;;
23490;SDS011;14683;50.038;8.078;2022-09-21T12:51:15;1.67;;;1.13;;
23490;SDS011;14683;50.038;8.078;2022-09-21T12:53:46;0.80;;;0.80;;
23490;SDS011;14683;50.038;8.078;2022-09-21T13:12:50;3.55;;;0.80;;
23490;SDS011;14683;50.038;8.078;2022-09-21T13:15:21;2.55;;;0.95;;
23490;SDS011;14683;50.038;8.078;2022-09-21T13:17:57;1.88;;;0.88;;
23490;SDS011;14683;50.038;8.078;2022-09-21T13:20:24;2.47;;;1.13;;
23490;SDS011;14683;50.038;8.078;2022-09-21T13:25:23;2.35;;;0.73;;
23490;SDS011;14683;50.038;8.078;2022-09-21T13:37:12;0.85;;;0.65;;
23490;SDS011;14683;50.038;8.078;2022-09-21T13:39:47;3.65;;;0.98;;
23490;SDS011;14683;50.038;8.078;2022-09-21T13:44:55;2.70;;;0.95;;
23490;SDS011;14683;50.038;8.078;2022-09-21T13:47:34;1.98;;;0.65;;
23490;SDS011;14683;50.038;8.078;2022-09-21T13:52:50;1.27;;;0.80;;
23490;SDS011;14683;50.038;8.078;2022-09-21T13:57:57;1.63;;;0.73;;
23490;SDS011;14683;50.038;8.078;2022-09-21T14:00:36;1.52;;;1.13;;
23490;SDS011;14683;50.038;8.078;2022-09-21T14:03:19;2.22;;;1.17;;
23490;SDS011;14683;50.038;8.078;2022-09-21T14:05:49;1.55;;;0.73;;
23490;SDS011;14683;50.038;8.078;2022-09-21T14:08:21;1.67;;;0.75;;
23490;SDS011;14683;50.038;8.078;2022-09-21T14:11:00;2.00;;;1.45;;
23490;SDS011;14683;50.038;8.078;2022-09-21T14:13:37;1.38;;;0.77;;
23490;SDS011;14683;50.038;8.078;2022-09-21T14:19:02;1.85;;;0.80;;
23490;SDS011;14683;50.038;8.078;2022-09-21T14:21:30;0.93;;;0.50;;
23490;SDS011;14683;50.038;8.078;2022-09-21T14:26:44;1.40;;;0.73;;
23490;SDS011;14683;50.038;8.078;2022-09-21T14:29:16;2.38;;;0.65;;
23490;SDS011;14683;50.038;8.078;2022-09-21T14:31:46;1.80;;;0.68;;
23490;SDS011;14683;50.038;8.078;2022-09-21T14:34:17;1.20;;;0.70;;
23490;SDS011;14683;50.038;8.078;2022-09-21T14:36:45;1.95;;;0.60;;
23490;SDS011;14683;50.038;8.078;2022-09-21T14:39:18;1.48;;;0.50;;
23490;SDS011;14683;50.038;8.078;2022-09-21T14:41:48;1.08;;;0.40;;
23490;SDS011;14683;50.038;8.078;2022-09-21T14:44:21;0.85;;;0.60;;
23490;SDS011;14683;50.038;8.078;2022-09-21T14:46:57;3.85;;;1.00;;
23490;SDS011;14683;50.038;8.078;2022-09-21T14:49:55;3.20;;;0.80;;
23490;SDS011;14683;50.038;8.078;2022-09-21T15:00:17;0.95;;;0.50;;
23490;SDS011;14683;50.038;8.078;2022-09-21T15:02:55;2.03;;;0.68;;
23490;SDS011;14683;50.038;8.078;2022-09-21T15:05:33;1.67;;;0.60;;
23490;SDS011;14683;50.038;8.078;2022-09-21T15:19:10;2.00;;;1.10;;
23490;SDS011;14683;50.038;8.078;2022-09-21T15:21:44;1.10;;;0.52;;
23490;SDS011;14683;50.038;8.078;2022-09-21T15:26:53;1.15;;;0.50;;
23490;SDS011;14683;50.038;8.078;2022-09-21T15:29:48;0.95;;;0.63;;
23490;SDS011;14683;50.038;8.078;2022-09-21T15:35:21;2.75;;;0.60;;
23490;SDS011;14683;50.038;8.078;2022-09-21T15:37:49;0.52;;;0.40;;
23490;SDS011;14683;50.038;8.078;2022-09-21T15:42:56;0.95;;;0.47;;
23490;SDS011;14683;50.038;8.078;2022-09-21T15:48:35;2.05;;;0.47;;
23490;SDS011;14683;50.038;8.078;2022-09-21T15:51:14;1.13;;;0.60;;
23490;SDS011;14683;50.038;8.078;2022-09-21T15:53:45;1.15;;;0.60;;
23490;SDS011;14683;50.038;8.078;2022-09-21T15:56:18;0.68;;;0.50;;
23490;SDS011;14683;50.038;8.078;2022-09-21T15:58:46;1.23;;;0.43;;
23490;SDS011;14683;50.038;8.078;2022-09-21T16:01:15;0.50;;;0.40;;
23490;SDS011;14683;50.038;8.078;2022-09-21T16:03:42;0.30;;;0.30;;
23490;SDS011;14683;50.038;8.078;2022-09-21T16:08:46;1.77;;;0.30;;
23490;SDS011;14683;50.038;8.078;2022-09-21T16:13:40;1.42;;;0.40;;
23490;SDS011;14683;50.038;8.078;2022-09-21T16:16:26;1.17;;;0.63;;
23490;SDS011;14683;50.038;8.078;2022-09-21T16:18:53;0.65;;;0.30;;
23490;SDS011;14683;50.038;8.078;2022-09-21T16:23:53;1.45;;;0.50;;
23490;SDS011;14683;50.038;8.078;2022-09-21T16:26:22;0.75;;;0.47;;
23490;SDS011;14683;50.038;8.078;2022-09-21T16:29:16;1.75;;;0.35;;
23490;SDS011;14683;50.038;8.078;2022-09-21T16:31:48;0.73;;;0.40;;
23490;SDS011;14683;50.038;8.078;2022-09-21T16:34:21;1.42;;;0.90;;
23490;SDS011;14683;50.038;8.078;2022-09-21T16:36:57;0.70;;;0.70;;
23490;SDS011;14683;50.038;8.078;2022-09-21T16:41:51;1.00;;;0.77;;
23490;SDS011;14683;50.038;8.078;2022-09-21T16:44:20;2.83;;;0.73;;
23490;SDS011;14683;50.038;8.078;2022-09-21T16:46:48;0.73;;;0.60;;
23490;SDS011;14683;50.038;8.078;2022-09-21T16:49:17;1.20;;;0.73;;
23490;SDS011;14683;50.038;8.078;2022-09-21T16:51:45;3.15;;;0.82;;
23490;SDS011;14683;50.038;8.078;2022-09-21T16:54:11;1.30;;;0.70;;
23490;SDS011;14683;50.038;8.078;2022-09-21T16:56:38;1.65;;;0.63;;
23490;SDS011;14683;50.038;8.078;2022-09-21T17:01:34;2.67;;;0.63;;
23490;SDS011;14683;50.038;8.078;2022-09-21T17:04:01;1.58;;;0.82;;
23490;SDS011;14683;50.038;8.078;2022-09-21T17:06:26;2.05;;;0.77;;
23490;SDS011;14683;50.038;8.078;2022-09-21T17:08:53;3.20;;;0.60;;
23490;SDS011;14683;50.038;8.078;2022-09-21T17:11:19;1.75;;;0.57;;
23490;SDS011;14683;50.038;8.078;2022-09-21T17:13:48;0.75;;;0.70;;
23490;SDS011;14683;50.038;8.078;2022-09-21T17:16:15;4.82;;;3.20;;
23490;SDS011;14683;50.038;8.078;2022-09-21T17:18:43;1.38;;;1.27;;
23490;SDS011;14683;50.038;8.078;2022-09-21T17:21:12;0.70;;;0.70;;
23490;SDS011;14683;50.038;8.078;2022-09-21T17:23:39;3.63;;;1.27;;
23490;SDS011;14683;50.038;8.078;2022-09-21T17:26:13;1.88;;;0.90;;
23490;SDS011;14683;50.038;8.078;2022-09-21T17:28:42;0.80;;;0.80;;
23490;SDS011;14683;50.038;8.078;2022-09-21T17:31:10;0.98;;;0.98;;
23490;SDS011;14683;50.038;8.078;2022-09-21T17:33:36;1.70;;;0.60;;
23490;SDS011;14683;50.038;8.078;2022-09-21T17:36:09;3.92;;;0.70;;
23490;SDS011;14683;50.038;8.078;2022-09-21T17:38:41;1.05;;;0.60;;
23490;SDS011;14683;50.038;8.078;2022-09-21T17:43:58;3.47;;;2.72;;
23490;SDS011;14683;50.038;8.078;2022-09-21T17:49:08;2.00;;;0.73;;
23490;SDS011;14683;50.038;8.078;2022-09-21T17:51:35;0.55;;;0.50;;
23490;SDS011;14683;50.038;8.078;2022-09-21T17:54:19;2.15;;;0.65;;
23490;SDS011;14683;50.038;8.078;2022-09-21T18:02:00;29.13;;;16.83;;
23490;SDS011;14683;50.038;8.078;2022-09-21T18:04:27;16.95;;;10.05;;
23490;SDS011;14683;50.038;8.078;2022-09-21T18:06:55;6.93;;;3.45;;
23490;SDS011;14683;50.038;8.078;2022-09-21T18:09:22;2.90;;;1.20;;
23490;SDS011;14683;50.038;8.078;2022-09-21T18:14:20;3.25;;;0.75;;
23490;SDS011;14683;50.038;8.078;2022-09-21T18:22:19;2.97;;;2.78;;
23490;SDS011;14683;50.038;8.078;2022-09-21T18:24:56;2.60;;;1.40;;
23490;SDS011;14683;50.038;8.078;2022-09-21T18:27:22;2.60;;;1.10;;
23490;SDS011;14683;50.038;8.078;2022-09-21T18:32:27;3.20;;;1.13;;
23490;SDS011;14683;50.038;8.078;2022-09-21T18:35:02;1.52;;;1.40;;
23490;SDS011;14683;50.038;8.078;2022-09-21T18:40:27;2.83;;;1.30;;
23490;SDS011;14683;50.038;8.078;2022-09-21T18:46:00;3.38;;;1.80;;
23490;SDS011;14683;50.038;8.078;2022-09-21T18:48:51;1.55;;;1.42;;
23490;SDS011;14683;50.038;8.078;2022-09-21T18:51:41;1.80;;;1.33;;
23490;SDS011;14683;50.038;8.078;2022-09-21T18:54:15;1.67;;;1.17;;
23490;SDS011;14683;50.038;8.078;2022-09-21T18:56:44;1.25;;;0.98;;
23490;SDS011;14683;50.038;8.078;2022-09-21T18:59:11;1.13;;;1.13;;
23490;SDS011;14683;50.038;8.078;2022-09-21T19:01:37;2.90;;;2.05;;
23490;SDS011;14683;50.038;8.078;2022-09-21T19:04:04;6.43;;;3.42;;
23490;SDS011;14683;50.038;8.078;2022-09-21T19:09:33;6.05;;;3.47;;
23490;SDS011;14683;50.038;8.078;2022-09-21T19:14:51;4.55;;;1.70;;
23490;SDS011;14683;50.038;8.078;2022-09-21T19:28:42;2.20;;;0.65;;
23490;SDS011;14683;50.038;8.078;2022-09-21T19:31:15;0.85;;;0.80;;
23490;SDS011;14683;50.038;8.078;2022-09-21T19:33:43;1.45;;;0.90;;
23490;SDS011;14683;50.038;8.078;2022-09-21T19:36:10;2.95;;;1.00;;
23490;SDS011;14683;50.038;8.078;2022-09-21T19:38:37;2.63;;;1.10;;
23490;SDS011;14683;50.038;8.078;2022-09-21T19:41:04;4.35;;;1.15;;
